Time;durP1;ratioP1;P1;durP2;ratioP2;P2;SDS_P1;SDS_P2;PMS_P1;PMS_P2;Temp;Humidity;BMP_temperature;BMP_pressure;BME280_temperature;BME280_humidity;BME280_pressure;Samples;Min_cycle;Max_cycle;Signal;HPM_P1;HPM_P2
2023/01/26 07:35:07;;;;;;;1.10;1.10;;;4.70;99.90;7.50;102174.00;;;;6233351;22;1290759;-73
2023/01/26 07:37:41;;;;;;;1.07;1.07;;;4.70;99.90;7.30;102190.00;;;;6247192;22;20595;-74
2023/01/26 07:40:10;;;;;;;5.80;5.43;;;4.70;99.90;7.50;102185.00;;;;6246303;23;20164;-75
2023/01/26 07:42:39;;;;;;;11.87;11.03;;;4.80;99.90;7.40;102194.00;;;;6246002;23;20614;-75
2023/01/26 07:45:06;;;;;;;1.47;1.47;;;4.80;99.90;7.70;102195.00;;;;6220722;23;20578;-74
2023/01/26 07:47:40;;;;;;;1.20;1.20;;;4.90;99.90;7.60;102204.00;;;;6245815;23;20154;-74
2023/01/26 07:50:12;;;;;;;1.20;1.20;;;4.90;99.90;7.80;102195.00;;;;6245298;23;20173;-74
2023/01/26 07:52:44;;;;;;;2.13;1.97;;;5.00;99.90;7.20;102207.00;;;;6245978;23;20145;-74
2023/01/26 07:55:18;;;;;;;3.83;3.57;;;4.80;99.90;6.80;102197.00;;;;6245540;23;20157;-75
2023/01/26 07:57:50;;;;;;;2.27;2.17;;;4.60;99.90;6.60;102168.00;;;;6221597;23;20159;-75
2023/01/26 08:00:20;;;;;;;0.93;0.93;;;4.60;99.90;7.00;102165.00;;;;6245461;23;20146;-74
2023/01/26 08:02:52;;;;;;;0.90;0.90;;;4.60;99.90;6.80;102198.00;;;;6218590;23;20202;-73
2023/01/26 08:05:19;;;;;;;1.00;1.00;;;4.60;99.90;7.10;102204.00;;;;6245744;22;20154;-74
2023/01/26 08:07:47;;;;;;;3.00;2.90;;;4.70;99.90;7.40;102209.00;;;;6219937;23;20245;-74
2023/01/26 08:10:14;;;;;;;1.20;1.20;;;4.80;99.90;7.30;102202.00;;;;6245539;23;20145;-74
2023/01/26 08:12:40;;;;;;;1.00;1.00;;;4.80;99.90;7.30;102198.00;;;;6247187;22;20188;-74
2023/01/26 08:15:06;;;;;;;3.03;2.93;;;4.80;99.90;7.50;102209.00;;;;6220441;23;20166;-74
2023/01/26 08:17:33;;;;;;;1.10;1.10;;;4.90;99.90;7.60;102217.00;;;;6247172;22;20672;-74
2023/01/26 08:20:02;;;;;;;4.10;1.80;;;5.00;99.90;7.50;102218.00;;;;6245297;23;20142;-74
2023/01/26 08:22:28;;;;;;;1.83;1.83;;;5.00;99.90;7.80;102220.00;;;;6245707;23;20609;-74
2023/01/26 08:24:57;;;;;;;6.60;2.50;;;5.00;99.90;7.40;102211.00;;;;6245543;23;20143;-74
2023/01/26 08:27:23;;;;;;;2.93;2.30;;;5.00;99.90;7.10;102213.00;;;;6245661;23;20162;-75
2023/01/26 08:29:50;;;;;;;3.33;3.23;;;4.90;99.90;6.60;102212.00;;;;6245804;23;20200;-74
2023/01/26 08:32:16;;;;;;;1.30;1.30;;;4.70;99.90;7.20;102220.00;;;;6245497;23;20204;-74
2023/01/26 08:34:42;;;;;;;1.20;1.20;;;4.80;99.90;6.80;102207.00;;;;6219600;23;20582;-74
2023/01/26 08:37:08;;;;;;;1.00;1.00;;;4.70;99.90;7.40;102188.00;;;;6218831;23;20154;-74
2023/01/26 08:39:33;;;;;;;0.90;0.90;;;4.80;99.90;7.40;102225.00;;;;6246514;23;20146;-75
2023/01/26 08:41:59;;;;;;;1.20;1.20;;;4.90;99.90;7.80;102230.00;;;;6244549;23;20624;-75
2023/01/26 08:44:28;;;;;;;1.03;1.03;;;5.10;99.90;7.50;102228.00;;;;6245099;23;20143;-74
2023/01/26 08:46:59;;;;;;;2.30;2.10;;;5.10;99.90;6.70;102229.00;;;;6245199;23;20260;-74
2023/01/26 08:49:33;;;;;;;0.90;0.90;;;4.80;99.90;7.60;102224.00;;;;6246483;22;20563;-74
2023/01/26 08:52:05;;;;;;;2.90;2.70;;;4.90;99.90;7.10;102234.00;;;;6220391;23;20274;-74
2023/01/26 08:54:36;;;;;;;3.63;3.33;;;5.00;99.90;7.50;102229.00;;;;6219520;23;20548;-74
2023/01/26 08:57:05;;;;;;;6.57;6.27;;;5.10;99.90;7.00;102235.00;;;;6219937;23;20185;-74
2023/01/26 08:59:34;;;;;;;2.03;1.93;;;4.90;99.90;7.10;102208.00;;;;6220140;23;20232;-74
2023/01/26 09:02:02;;;;;;;0.90;0.90;;;4.80;99.90;7.00;102205.00;;;;6244858;23;20470;-74
2023/01/26 09:04:28;;;;;;;2.57;2.43;;;4.90;99.90;7.70;102199.00;;;;6246013;23;20158;-75
2023/01/26 09:06:54;;;;;;;8.50;2.03;;;5.10;99.90;7.80;102206.00;;;;6246374;22;20246;-74
2023/01/26 09:09:20;;;;;;;1.10;1.10;;;5.20;99.90;7.40;102197.00;;;;6245482;23;20146;-75
2023/01/26 09:11:49;;;;;;;1.40;1.40;;;5.10;99.90;7.20;102217.00;;;;6219973;23;20163;-75
2023/01/26 09:14:17;;;;;;;2.87;2.67;;;5.00;99.90;7.70;102194.00;;;;6220381;23;20463;-75
2023/01/26 09:16:43;;;;;;;0.80;0.80;;;5.20;99.90;7.30;102200.00;;;;6219622;23;20150;-74
2023/01/26 09:19:10;;;;;;;2.20;2.10;;;5.20;99.90;7.70;102223.00;;;;6244991;23;20149;-73
2023/01/26 09:21:43;;;;;;;1.40;1.40;;;5.40;99.90;8.00;102212.00;;;;6219741;23;20240;-74
2023/01/26 09:24:09;;;;;;;0.90;0.90;;;5.60;99.90;7.60;102222.00;;;;6246588;22;20235;-73
2023/01/26 09:26:38;;;;;;;2.07;1.97;;;5.60;99.90;7.50;102221.00;;;;6245312;23;20466;-73
2023/01/26 09:29:07;;;;;;;2.00;1.90;;;5.60;99.90;6.90;102200.00;;;;6244023;23;20165;-73
2023/01/26 09:31:39;;;;;;;0.70;0.70;;;5.30;99.90;6.70;102190.00;;;;6244566;23;20143;-74
2023/01/26 09:34:08;;;;;;;7.17;6.53;;;5.20;99.90;7.20;102193.00;;;;6244835;23;20639;-73
2023/01/26 09:36:34;;;;;;;6.33;4.93;;;5.30;99.90;6.60;102187.00;;;;6219135;23;20189;-73
2023/01/26 09:39:02;;;;;;;0.97;0.90;;;5.40;99.90;7.00;102183.00;;;;6244607;23;20141;-73
2023/01/26 09:42:09;;;;;;;0.90;0.90;;;5.50;99.90;8.00;102183.00;;;;6245066;23;20151;-74
2023/01/26 09:45:12;;;;;;;5.80;5.30;;;5.80;99.90;7.80;102191.00;;;;6244281;23;20599;-74
2023/01/26 09:48:08;;;;;;;3.97;3.63;;;6.00;99.90;7.70;102191.00;;;;6230296;23;20609;-74
2023/01/26 09:50:47;;;;;;;5.50;1.37;;;6.00;99.90;7.80;102183.00;;;;6219229;23;20175;-74
2023/01/26 09:53:55;;;;;;;0.50;0.50;;;5.90;99.90;7.70;102195.00;;;;6244758;23;20433;-74
2023/01/26 09:56:27;;;;;;;0.50;0.50;;;6.00;99.90;7.90;102187.00;;;;6244514;23;20220;-76
2023/01/26 09:59:12;;;;;;;1.43;1.43;;;6.10;99.90;8.00;102191.00;;;;6244704;23;20145;-76
2023/01/26 10:01:50;;;;;;;1.77;1.67;;;6.40;99.90;8.00;102195.00;;;;6219322;23;20167;-76
2023/01/26 10:04:31;;;;;;;0.40;0.40;;;6.30;99.90;8.50;102200.00;;;;6245165;22;20225;-76
2023/01/26 10:06:59;;;;;;;1.93;1.83;;;6.60;99.90;7.60;102198.00;;;;6244301;23;20169;-76
2023/01/26 10:09:32;;;;;;;1.27;1.27;;;6.50;99.90;7.90;102200.00;;;;6219132;23;20199;-74
2023/01/26 10:12:11;;;;;;;3.87;2.13;;;6.50;99.90;8.20;102179.00;;;;6246218;22;20210;-74
2023/01/26 10:14:52;;;;;;;2.20;2.10;;;6.70;99.90;8.30;102205.00;;;;6243512;23;20167;-73
2023/01/26 10:17:33;;;;;;;0.80;0.80;;;6.80;99.90;8.30;102206.00;;;;6246253;22;20148;-74
2023/01/26 10:20:27;;;;;;;1.90;1.33;;;6.80;99.90;8.80;102203.00;;;;6243460;23;20210;-73
2023/01/26 10:33:34;;;;;;;0.80;0.70;;;6.50;99.90;7.90;102223.00;;;;5069963;28;20558;-74
2023/01/26 10:36:04;;;;;;;0.60;0.60;;;6.70;99.90;8.70;102228.00;;;;5035827;28;20202;-74
2023/01/26 10:38:34;;;;;;;1.03;1.03;;;7.10;99.90;8.90;102219.00;;;;5049222;28;20191;-74
2023/01/26 10:41:05;;;;;;;1.20;1.13;;;7.20;99.90;8.60;102217.00;;;;5050928;28;20228;-74
2023/01/26 10:43:36;;;;;;;1.50;0.90;;;7.20;99.90;9.00;102221.00;;;;5048930;28;20197;-74
2023/01/26 10:46:12;;;;;;;0.80;0.80;;;7.30;99.90;9.40;102209.00;;;;5048343;28;20236;-74
2023/01/26 10:48:38;;;;;;;0.50;0.50;;;7.40;99.90;9.40;102211.00;;;;5038942;28;20198;-73
2023/01/26 10:51:18;;;;;;;0.77;0.77;;;7.70;99.90;9.20;102225.00;;;;5052229;28;20190;-74
2023/01/26 10:53:44;;;;;;;0.60;0.60;;;7.70;99.90;9.90;102200.00;;;;5048553;28;20583;-74
2023/01/26 10:56:19;;;;;;;0.80;0.80;;;7.80;99.90;9.30;102215.00;;;;5033583;28;20205;-75
2023/01/26 10:58:53;;;;;;;0.50;0.50;;;7.70;99.90;9.30;102208.00;;;;5039492;28;20182;-71
2023/01/26 11:01:26;;;;;;;2.97;2.77;;;7.60;99.90;8.80;102191.00;;;;5056428;28;20201;-73
2023/01/26 11:04:14;;;;;;;0.50;0.50;;;7.50;99.90;9.10;102193.00;;;;5048144;28;20189;-74
2023/01/26 11:06:40;;;;;;;1.30;1.00;;;7.50;99.90;9.10;102203.00;;;;5047038;28;20204;-73
2023/01/26 11:09:27;;;;;;;8.33;1.93;;;7.60;99.90;8.60;102200.00;;;;5033984;28;20563;-73
2023/01/26 11:12:04;;;;;;;2.30;2.00;;;7.50;99.90;8.50;102220.00;;;;5048153;28;20206;-73
2023/01/26 11:14:34;;;;;;;0.70;0.70;;;7.30;99.90;9.00;102197.00;;;;5038663;28;20564;-73
2023/01/26 11:17:25;;;;;;;0.93;0.93;;;7.30;99.90;8.50;102226.00;;;;5041495;28;20189;-73
2023/01/26 11:20:32;;;;;;;1.70;1.60;;;7.30;99.90;8.80;102198.00;;;;5046845;28;20213;-72
2023/01/26 11:23:16;;;;;;;1.73;1.70;;;7.40;99.90;9.50;102227.00;;;;5044841;28;20194;-72
2023/01/26 11:26:04;;;;;;;4.33;1.43;;;7.60;99.90;9.10;102229.00;;;;5046706;28;20185;-73
2023/01/26 11:28:48;;;;;;;4.90;1.33;;;7.70;99.90;9.40;102219.00;;;;5041425;28;20201;-65
2023/01/26 11:31:43;;;;;;;0.40;0.40;;;7.80;99.90;9.90;102218.00;;;;5046848;28;20186;-73
2023/01/26 11:34:30;;;;;;;1.70;1.40;;;7.90;99.90;9.70;102227.00;;;;5043463;28;20191;-76
2023/01/26 11:37:45;;;;;;;0.40;0.40;;;8.00;99.90;9.40;102220.00;;;;5045105;28;20195;-74
2023/01/26 11:40:32;;;;;;;0.40;0.40;;;8.10;99.90;9.70;102221.00;;;;5080598;28;20178;-74
2023/01/26 11:43:16;;;;;;;2.57;2.37;;;8.20;99.90;10.70;102227.00;;;;5043531;28;20204;-75
2023/01/26 11:46:25;;;;;;;0.90;0.90;;;8.60;99.90;9.90;102226.00;;;;5047121;28;20195;-74
2023/01/26 11:49:00;;;;;;;0.47;0.47;;;8.30;99.90;9.30;102216.00;;;;5032077;28;20264;-75
2023/01/26 11:52:17;;;;;;;0.70;0.70;;;8.10;99.90;9.30;102215.00;;;;5034574;28;20215;-74
2023/01/26 11:55:06;;;;;;;0.43;0.33;;;8.10;99.90;9.20;102208.00;;;;5030851;28;20179;-75
2023/01/26 11:57:58;;;;;;;0.60;0.60;;;7.90;99.90;10.10;102219.00;;;;5020559;28;20279;-73
2023/01/26 12:00:37;;;;;;;2.77;1.20;;;8.20;99.90;9.40;102219.00;;;;5023186;28;20184;-74
2023/01/26 12:03:34;;;;;;;0.40;0.40;;;8.40;99.90;10.30;102211.00;;;;5016703;28;20195;-74
2023/01/26 12:06:12;;;;;;;0.63;0.63;;;8.50;99.90;10.40;102195.00;;;;5022618;28;20652;-75
2023/01/26 12:08:52;;;;;;;0.70;0.57;;;8.70;99.90;10.10;102227.00;;;;5040941;28;20203;-75
2023/01/26 12:11:27;;;;;;;1.00;1.00;;;8.80;99.90;11.00;102225.00;;;;5033694;28;20224;-74
2023/01/26 12:14:14;;;;;;;1.13;1.03;;;8.80;99.90;10.20;102233.00;;;;5031009;28;20242;-74
2023/01/26 12:17:09;;;;;;;0.67;0.67;;;8.80;99.90;10.10;102221.00;;;;5024875;28;20219;-73
2023/01/26 12:20:10;;;;;;;0.40;0.40;;;8.60;99.90;10.40;102199.00;;;;5034164;28;20182;-74
2023/01/26 12:22:53;;;;;;;6.50;1.63;;;8.90;99.90;9.70;102207.00;;;;5061835;28;20639;-75
2023/01/26 12:25:55;;;;;;;1.60;0.97;;;8.70;99.90;9.80;102219.00;;;;5030357;28;20204;-75
2023/01/26 12:29:06;;;;;;;0.70;0.50;;;8.50;99.90;10.00;102225.00;;;;5057009;28;20221;-74
2023/01/26 12:31:47;;;;;;;0.30;0.30;;;8.50;99.90;10.40;102192.00;;;;5017629;28;20688;-74
2023/01/26 12:34:31;;;;;;;0.90;0.90;;;8.80;99.90;11.10;102238.00;;;;5046752;28;20568;-74
2023/01/26 12:36:57;;;;;;;1.53;1.27;;;9.00;99.90;10.30;102229.00;;;;5033538;28;20176;-74
2023/01/26 12:39:38;;;;;;;1.17;0.93;;;8.80;99.90;10.50;102239.00;;;;5034408;28;20550;-75
2023/01/26 12:42:45;;;;;;;1.50;1.40;;;9.00;99.90;9.60;102238.00;;;;5066552;28;20189;-74
2023/01/26 12:45:20;;;;;;;14.17;3.90;;;8.60;99.90;9.80;102249.00;;;;5050157;28;20541;-74
2023/01/26 12:48:40;;;;;;;0.30;0.30;;;8.60;99.90;10.40;102249.00;;;;5016715;28;20187;-73
2023/01/26 12:51:31;;;;;;;0.30;0.30;;;8.70;99.90;9.50;102250.00;;;;5015229;28;20188;-73
2023/01/26 12:54:12;;;;;;;11.57;1.73;;;8.30;99.90;9.50;102259.00;;;;5031787;28;20212;-74
2023/01/26 12:56:53;;;;;;;0.57;0.57;;;8.40;99.90;9.20;102210.00;;;;5028038;28;20188;-74
2023/01/26 12:59:37;;;;;;;3.53;0.90;;;8.10;99.90;9.10;102250.00;;;;5031084;28;20210;-75
2023/01/26 13:02:36;;;;;;;5.40;0.50;;;8.00;99.90;9.20;102259.00;;;;5025303;28;20273;-74
2023/01/26 13:05:04;;;;;;;0.50;0.50;;;8.10;99.90;9.50;102263.00;;;;5033369;28;20195;-74
2023/01/26 13:07:38;;;;;;;0.93;0.90;;;8.00;99.90;10.40;102265.00;;;;5016802;28;20188;-75
2023/01/26 13:10:13;;;;;;;0.60;0.60;;;8.40;99.90;9.60;102221.00;;;;5021416;28;20199;-74
2023/01/26 13:13:00;;;;;;;1.30;0.93;;;8.20;99.90;9.30;102240.00;;;;5033549;28;20215;-74
2023/01/26 13:15:31;;;;;;;0.77;0.77;;;8.10;99.90;9.60;102225.00;;;;5032770;28;20190;-74
2023/01/26 13:18:03;;;;;;;1.50;1.07;;;8.20;99.90;9.60;102223.00;;;;5033042;28;20240;-74
2023/01/26 13:20:45;;;;;;;0.90;0.73;;;8.20;99.90;9.80;102213.00;;;;5017551;28;20184;-74
2023/01/26 13:23:39;;;;;;;6.33;0.70;;;8.10;99.90;9.10;102220.00;;;;5049158;28;20714;-74
2023/01/26 13:26:15;;;;;;;0.40;0.40;;;8.20;99.90;10.00;102213.00;;;;5027090;28;20194;-74
2023/01/26 13:28:48;;;;;;;0.30;0.30;;;8.20;99.90;10.30;102211.00;;;;5034518;28;20184;-74
2023/01/26 13:31:31;;;;;;;2.47;1.17;;;8.40;99.90;9.80;102203.00;;;;5033248;28;20180;-74
2023/01/26 13:34:06;;;;;;;0.60;0.60;;;8.30;99.90;9.90;102217.00;;;;5033849;28;20275;-74
2023/01/26 13:36:46;;;;;;;1.13;0.70;;;8.40;99.90;9.80;102181.00;;;;5049278;28;20662;-75
2023/01/26 13:39:36;;;;;;;0.30;0.30;;;8.40;99.90;10.90;102217.00;;;;5032140;28;20191;-74
2023/01/26 13:42:21;;;;;;;2.13;2.00;;;8.60;99.90;10.10;102178.00;;;;5019743;28;20197;-74
2023/01/26 13:45:00;;;;;;;0.30;0.30;;;8.60;99.90;11.40;102215.00;;;;5026766;28;20182;-74
2023/01/26 13:47:36;;;;;;;0.40;0.40;;;8.80;99.90;11.30;102212.00;;;;5032552;28;20188;-75
2023/01/26 13:50:30;;;;;;;0.40;0.40;;;8.90;99.90;10.30;102224.00;;;;5030525;28;20185;-74
2023/01/26 13:52:57;;;;;;;0.20;0.20;;;8.80;99.90;10.90;102222.00;;;;5024780;28;20237;-75
2023/01/26 13:55:28;;;;;;;0.40;0.40;;;8.80;99.90;11.60;102236.00;;;;5015693;28;20190;-75
2023/01/26 13:58:21;;;;;;;1.30;0.97;;;9.10;99.90;11.00;102207.00;;;;5024334;28;20665;-75
2023/01/26 14:01:03;;;;;;;0.30;0.30;;;9.10;99.90;11.20;102247.00;;;;5015875;28;20263;-76
2023/01/26 14:03:32;;;;;;;0.30;0.30;;;9.00;99.90;11.50;102226.00;;;;5023181;28;20611;-76
2023/01/26 14:06:18;;;;;;;0.37;0.37;;;9.10;99.90;11.50;102242.00;;;;5014887;28;20579;-76
2023/01/26 14:08:54;;;;;;;2.30;2.20;;;9.20;99.90;11.80;102263.00;;;;5031747;28;20721;-75
2023/01/26 14:11:24;;;;;;;0.30;0.30;;;9.30;99.90;11.10;102212.00;;;;5031921;28;20276;-75
2023/01/26 14:13:55;;;;;;;0.30;0.30;;;9.00;99.90;11.10;102250.00;;;;5031852;28;20185;-75
2023/01/26 14:16:32;;;;;;;5.20;0.90;;;9.00;99.90;10.60;102253.00;;;;5031788;28;20274;-75
2023/01/26 14:19:17;;;;;;;3.80;2.30;;;8.80;99.90;11.00;102250.00;;;;5025585;28;20716;-76
2023/01/26 14:22:04;;;;;;;0.23;0.23;;;8.80;99.90;10.90;102252.00;;;;5020300;28;20524;-77
2023/01/26 14:24:38;;;;;;;0.30;0.30;;;8.90;99.90;11.90;102263.00;;;;5031528;28;20671;-77
2023/01/26 14:27:40;;;;;;;0.40;0.40;;;9.30;99.90;12.10;102277.00;;;;5020127;28;20192;-77
2023/01/26 14:30:32;;;;;;;3.67;1.30;;;9.60;99.90;11.40;102271.00;;;;5014520;28;20611;-76
2023/01/26 14:33:18;;;;;;;1.20;0.97;;;9.70;99.90;10.40;102261.00;;;;5031570;28;20294;-76
2023/01/26 14:35:57;;;;;;;0.20;0.20;;;9.10;99.90;11.70;102274.00;;;;5008472;28;20251;-76
2023/01/26 14:38:27;;;;;;;0.40;0.40;;;9.20;99.90;11.90;102274.00;;;;5037843;28;20208;-76
2023/01/26 14:40:58;;;;;;;1.50;0.70;;;9.40;99.90;12.10;102274.00;;;;5029879;28;20620;-71
2023/01/26 14:43:25;;;;;;;2.83;1.23;;;9.50;99.90;10.70;102263.00;;;;5015107;28;20649;-77
2023/01/26 14:45:57;;;;;;;0.20;0.20;;;9.20;99.90;11.70;102268.00;;;;5031690;28;20232;-76
2023/01/26 14:48:32;;;;;;;6.30;1.13;;;9.30;99.90;11.20;102273.00;;;;5032702;28;20191;-77
2023/01/26 14:50:59;;;;;;;0.60;0.47;;;9.20;99.90;10.70;102246.00;;;;5028845;28;20184;-77
2023/01/26 14:53:26;;;;;;;4.63;0.70;;;8.90;99.90;9.70;102262.00;;;;5022124;28;20206;-77
2023/01/26 14:55:55;;;;;;;0.20;0.20;;;8.60;99.90;10.40;102254.00;;;;5028233;28;20189;-77
2023/01/26 14:58:31;;;;;;;0.20;0.20;;;8.60;99.90;10.90;102253.00;;;;5031491;28;20267;-77
2023/01/26 15:00:59;;;;;;;0.47;0.47;;;8.70;99.90;11.50;102287.00;;;;5015148;28;20180;-77
2023/01/26 15:03:32;;;;;;;0.40;0.40;;;9.00;99.90;10.60;102276.00;;;;5012030;28;20693;-77
2023/01/26 15:06:14;;;;;;;0.20;0.20;;;8.90;99.90;11.50;102257.00;;;;5041558;28;20654;-77
2023/01/26 15:08:52;;;;;;;0.70;0.70;;;9.00;99.90;10.20;102268.00;;;;5030736;28;20527;-77
2023/01/26 15:14:44;;;;;;;0.20;0.20;;;8.60;99.90;11.00;102273.00;;;;5031437;28;20190;-77
2023/01/26 15:17:38;;;;;;;0.20;0.20;;;8.70;99.90;11.10;102279.00;;;;5030619;28;20202;-77
2023/01/26 15:20:24;;;;;;;1.03;0.70;;;8.80;99.90;12.00;102295.00;;;;5032518;28;20702;-77
2023/01/26 15:22:52;;;;;;;2.70;0.50;;;9.20;99.90;10.90;102256.00;;;;5028258;28;20204;-77
2023/01/26 15:25:28;;;;;;;0.73;0.73;;;9.10;99.90;10.70;102288.00;;;;5035022;28;20189;-77
2023/01/26 15:28:02;;;;;;;0.20;0.20;;;8.90;99.90;11.00;102280.00;;;;5034859;28;20674;-77
2023/01/26 15:30:32;;;;;;;1.10;0.57;;;8.80;99.90;10.80;102280.00;;;;5021172;28;20201;-77
2023/01/26 15:33:01;;;;;;;0.20;0.20;;;8.90;99.90;11.50;102292.00;;;;5033909;28;20265;-77
2023/01/26 15:35:33;;;;;;;0.43;0.33;;;9.00;99.90;10.60;102282.00;;;;5035123;28;20270;-77
2023/01/26 15:38:10;;;;;;;0.20;0.20;;;8.80;99.90;11.50;102288.00;;;;5018207;28;20180;-76
2023/01/26 15:40:37;;;;;;;0.40;0.40;;;8.80;99.90;10.00;102280.00;;;;5029926;28;20179;-78
2023/01/26 15:43:14;;;;;;;9.40;1.43;;;8.70;99.90;10.00;102273.00;;;;5025657;28;20275;-78
2023/01/26 15:45:49;;;;;;;1.60;0.97;;;8.60;99.90;10.50;102255.00;;;;5032918;28;20704;-78
2023/01/26 15:48:15;;;;;;;0.73;0.37;;;8.60;99.90;10.20;102275.00;;;;5015374;28;20191;-78
2023/01/26 15:50:41;;;;;;;2.83;0.83;;;8.50;99.90;10.10;102277.00;;;;5057023;28;20198;-78
2023/01/26 15:53:16;;;;;;;4.70;0.50;;;8.40;99.90;9.90;102219.00;;;;5034501;28;20211;-78
2023/01/26 15:55:43;;;;;;;0.20;0.20;;;8.40;99.90;10.20;102271.00;;;;5018946;28;20256;-78
2023/01/26 15:58:09;;;;;;;1.47;1.37;;;8.40;99.90;10.80;102280.00;;;;5058271;28;20245;-78
2023/01/26 16:00:38;;;;;;;0.43;0.40;;;8.50;99.90;11.00;102275.00;;;;5029875;28;20235;-78
2023/01/26 16:03:15;;;;;;;1.20;1.13;;;8.60;99.90;11.10;102287.00;;;;5017387;28;20237;-77
2023/01/26 16:05:43;;;;;;;0.20;0.20;;;8.60;99.90;11.40;102289.00;;;;5017768;28;20179;-76
2023/01/26 16:08:11;;;;;;;0.30;0.30;;;8.80;99.90;11.30;102293.00;;;;5035321;28;20183;-75
2023/01/26 16:10:43;;;;;;;0.30;0.30;;;8.80;99.90;10.90;102296.00;;;;5038200;28;20177;-75
2023/01/26 16:13:24;;;;;;;0.30;0.30;;;8.80;99.90;11.10;102282.00;;;;5035409;28;20213;-76
2023/01/26 16:15:55;;;;;;;0.30;0.30;;;8.80;99.90;10.90;102300.00;;;;5021381;28;20186;-76
2023/01/26 16:18:21;;;;;;;2.20;0.63;;;8.60;99.90;10.50;102311.00;;;;5028058;28;20597;-76
2023/01/26 16:20:49;;;;;;;2.27;0.60;;;8.60;99.90;10.90;102298.00;;;;5017551;28;20187;-76
2023/01/26 16:23:36;;;;;;;0.60;0.60;;;8.50;99.90;11.20;102288.00;;;;5034116;28;20250;-76
2023/01/26 16:26:09;;;;;;;0.27;0.27;;;8.70;99.90;10.80;102309.00;;;;5020629;28;20269;-76
2023/01/26 16:28:35;;;;;;;0.50;0.50;;;8.60;99.90;10.10;102289.00;;;;5017855;28;20184;-76
2023/01/26 16:31:27;;;;;;;0.93;0.93;;;8.40;99.90;10.80;102309.00;;;;5028003;28;20618;-76
2023/01/26 16:33:59;;;;;;;0.30;0.30;;;8.40;99.90;11.10;102315.00;;;;5015125;28;20198;-76
2023/01/26 16:36:31;;;;;;;0.30;0.30;;;8.60;99.90;10.90;102304.00;;;;5030243;28;20273;-76
2023/01/26 16:39:04;;;;;;;0.30;0.30;;;8.70;99.90;10.90;102302.00;;;;5043967;28;20179;-76
2023/01/26 16:41:33;;;;;;;3.07;2.97;;;8.70;99.90;10.80;102302.00;;;;5017853;28;20219;-76
2023/01/26 16:44:13;;;;;;;0.80;0.80;;;8.60;99.90;10.10;102311.00;;;;5025793;28;20235;-76
2023/01/26 16:46:48;;;;;;;0.30;0.30;;;8.50;99.90;10.50;102295.00;;;;5033052;28;20197;-76
2023/01/26 16:49:17;;;;;;;0.77;0.77;;;8.40;99.90;10.10;102261.00;;;;5033768;28;20190;-76
2023/01/26 16:51:49;;;;;;;2.00;1.40;;;8.30;99.90;10.20;102263.00;;;;5023129;28;20257;-76
2023/01/26 16:54:17;;;;;;;6.90;1.23;;;8.20;99.90;9.80;102249.00;;;;5033944;28;20287;-76
2023/01/26 16:56:45;;;;;;;0.60;0.50;;;8.20;99.90;10.10;102277.00;;;;5024043;28;20191;-76
2023/01/26 16:59:11;;;;;;;0.40;0.40;;;8.20;99.90;10.80;102280.00;;;;5013847;28;20227;-76
2023/01/26 17:01:46;;;;;;;0.50;0.50;;;8.40;99.90;10.10;102244.00;;;;5034237;28;20603;-76
2023/01/26 17:04:12;;;;;;;0.30;0.30;;;8.20;99.90;9.80;102270.00;;;;5017057;28;20241;-76
2023/01/26 17:06:40;;;;;;;0.73;0.73;;;8.10;99.90;10.10;102263.00;;;;5032785;28;20592;-76
2023/01/26 17:09:06;;;;;;;0.40;0.30;;;8.10;99.90;9.80;102269.00;;;;5033039;28;20218;-68
2023/01/26 17:11:39;;;;;;;13.83;1.40;;;8.10;99.90;9.80;102256.00;;;;5033089;28;20208;-77
2023/01/26 17:14:11;;;;;;;0.83;0.57;;;8.00;99.90;9.60;102262.00;;;;5033197;28;20179;-77
2023/01/26 17:16:38;;;;;;;2.63;1.00;;;8.00;99.90;9.90;102280.00;;;;5016411;28;20191;-76
2023/01/26 17:19:06;;;;;;;0.30;0.30;;;8.10;99.90;9.40;102257.00;;;;5016498;28;20270;-76
2023/01/26 17:21:34;;;;;;;3.60;0.97;;;7.90;99.90;9.20;102261.00;;;;5032872;28;20185;-76
2023/01/26 17:24:00;;;;;;;0.83;0.40;;;7.80;99.90;9.10;102262.00;;;;5032410;28;20757;-75
2023/01/26 17:26:26;;;;;;;0.80;0.43;;;7.70;99.90;9.30;102266.00;;;;5032822;28;20270;-76
2023/01/26 17:28:54;;;;;;;8.40;0.80;;;7.70;99.90;9.40;102275.00;;;;5032342;28;20278;-75
2023/01/26 17:31:25;;;;;;;0.60;0.60;;;7.80;99.90;9.10;102264.00;;;;5032652;28;20254;-75
2023/01/26 17:33:51;;;;;;;17.53;1.20;;;7.70;99.90;9.30;102281.00;;;;5032542;28;20194;-75
2023/01/26 17:36:18;;;;;;;0.23;0.23;;;7.60;99.90;9.70;102275.00;;;;5015571;28;20190;-75
2023/01/26 17:39:09;;;;;;;0.37;0.37;;;7.70;99.90;9.60;102268.00;;;;5028871;28;20219;-75
2023/01/26 17:42:00;;;;;;;0.40;0.40;;;7.80;99.90;9.50;102274.00;;;;5029883;28;20219;-76
2023/01/26 17:44:33;;;;;;;1.40;0.70;;;7.80;99.90;8.70;102265.00;;;;5015253;28;20557;-75
2023/01/26 17:46:59;;;;;;;0.27;0.27;;;7.60;99.90;10.10;102286.00;;;;5033479;28;20217;-75
2023/01/26 17:49:27;;;;;;;0.30;0.30;;;7.80;99.90;9.50;102285.00;;;;5031904;28;20273;-76
2023/01/26 17:51:56;;;;;;;0.20;0.20;;;7.70;99.90;9.80;102294.00;;;;5021171;28;20191;-75
2023/01/26 17:54:22;;;;;;;0.30;0.30;;;7.90;99.90;9.60;102309.00;;;;5015394;28;20274;-75
2023/01/26 17:56:51;;;;;;;0.53;0.53;;;7.90;99.90;9.40;102297.00;;;;5033432;28;20267;-75
2023/01/26 17:59:17;;;;;;;0.40;0.40;;;7.80;99.90;9.20;102291.00;;;;5031531;28;20667;-75
2023/01/26 18:01:45;;;;;;;0.20;0.20;;;7.60;99.90;9.00;102297.00;;;;5032238;28;20696;-75
2023/01/26 18:04:17;;;;;;;0.20;0.20;;;7.50;99.90;9.40;102289.00;;;;5029662;28;20191;-75
2023/01/26 18:06:46;;;;;;;0.20;0.20;;;7.50;99.90;9.80;102308.00;;;;5021326;28;20260;-75
2023/01/26 18:09:14;;;;;;;2.40;1.27;;;7.80;99.90;9.30;102309.00;;;;5030749;28;20191;-75
2023/01/26 18:11:43;;;;;;;15.97;0.97;;;7.70;99.90;9.00;102267.00;;;;5026349;28;20233;-75
2023/01/26 18:14:21;;;;;;;0.40;0.40;;;7.60;99.90;8.90;102291.00;;;;5031352;28;20194;-75
2023/01/26 18:16:48;;;;;;;0.20;0.20;;;7.50;99.90;8.60;102283.00;;;;5032690;28;20346;-75
2023/01/26 18:19:16;;;;;;;1.70;1.60;;;7.30;99.90;8.70;102282.00;;;;5031838;28;20569;-76
2023/01/26 18:21:42;;;;;;;1.80;0.67;;;7.30;99.90;8.70;102285.00;;;;5032354;28;20257;-75
2023/01/26 18:24:09;;;;;;;0.20;0.20;;;7.40;99.90;8.80;102291.00;;;;5033127;28;20588;-74
2023/01/26 18:26:41;;;;;;;0.20;0.20;;;7.30;99.90;9.50;102294.00;;;;5024111;28;20191;-75
2023/01/26 18:29:13;;;;;;;0.30;0.30;;;7.50;99.90;9.90;102315.00;;;;5019338;28;20583;-75
2023/01/26 18:31:44;;;;;;;0.20;0.20;;;7.70;99.90;9.70;102314.00;;;;5031571;28;20292;-75
2023/01/26 18:34:11;;;;;;;0.40;0.40;;;7.80;99.90;9.60;102305.00;;;;5015368;28;20540;-75
2023/01/26 18:36:43;;;;;;;0.30;0.30;;;7.70;99.90;11.10;102336.00;;;;5031750;28;20681;-75
2023/01/26 18:39:15;;;;;;;0.43;0.43;;;8.20;99.90;10.70;102296.00;;;;5032619;28;20178;-75
2023/01/26 18:41:42;;;;;;;0.30;0.30;;;8.20;99.90;10.40;102298.00;;;;5031822;28;20209;-76
2023/01/26 18:44:08;;;;;;;0.20;0.20;;;8.10;99.90;9.20;102329.00;;;;5031217;28;20202;-75
2023/01/26 18:46:37;;;;;;;0.20;0.20;;;7.90;99.90;9.50;102281.00;;;;5023751;28;20539;-76
2023/01/26 18:49:09;;;;;;;0.20;0.20;;;7.60;99.90;10.60;102327.00;;;;5019793;28;20211;-75
2023/01/26 18:51:38;;;;;;;0.30;0.30;;;7.90;99.90;10.10;102324.00;;;;5014910;28;20630;-77
2023/01/26 18:54:04;;;;;;;0.30;0.30;;;8.00;99.90;9.60;102319.00;;;;5033688;28;20585;-75
2023/01/26 18:56:30;;;;;;;0.30;0.30;;;7.80;99.90;9.60;102314.00;;;;5051645;28;20191;-75
2023/01/26 18:58:56;;;;;;;0.70;0.47;;;7.70;99.90;9.10;102295.00;;;;5023612;28;20186;-75
2023/01/26 19:01:22;;;;;;;0.20;0.20;;;7.60;99.90;8.90;102309.00;;;;5035150;28;20653;-75
2023/01/26 19:03:53;;;;;;;0.63;0.63;;;7.40;99.90;8.90;102309.00;;;;5035343;28;20212;-75
2023/01/26 19:06:21;;;;;;;1.30;0.50;;;7.30;99.90;9.30;102277.00;;;;5035117;28;20649;-75
2023/01/26 19:08:57;;;;;;;0.50;0.50;;;7.50;99.90;9.00;102303.00;;;;5035497;28;20179;-75
2023/01/26 19:11:29;;;;;;;4.77;1.83;;;7.30;99.90;10.00;102314.00;;;;5063516;28;20556;-75
2023/01/26 19:13:56;;;;;;;0.30;0.30;;;7.50;99.90;9.60;102313.00;;;;5018861;28;20236;-75
2023/01/26 19:16:25;;;;;;;0.20;0.20;;;7.70;99.90;10.20;102315.00;;;;5017003;28;20313;-75
2023/01/26 19:18:53;;;;;;;0.30;0.30;;;7.70;99.90;10.60;102333.00;;;;5034948;28;20282;-74
2023/01/26 19:21:20;;;;;;;1.10;1.10;;;8.00;99.90;10.50;102321.00;;;;5035125;28;20195;-75
2023/01/26 19:23:47;;;;;;;0.20;0.20;;;8.10;99.90;10.10;102334.00;;;;5035001;28;20191;-74